sensor_id;sensor_type;location;lat;lon;timestamp;P1;durP1;ratioP1;P2;durP2;ratioP2
50429;SDS011;36359;41.556;-8.418;2023-12-22T00:01:22;15.57;;;11.10;;
50429;SDS011;36359;41.556;-8.418;2023-12-22T00:03:47;15.23;;;11.50;;
50429;SDS011;36359;41.556;-8.418;2023-12-22T00:06:15;21.13;;;15.50;;
50429;SDS011;36359;41.556;-8.418;2023-12-22T00:08:41;19.83;;;14.60;;
50429;SDS011;36359;41.556;-8.418;2023-12-22T00:11:07;21.30;;;16.00;;
50429;SDS011;36359;41.556;-8.418;2023-12-22T00:13:33;20.37;;;15.10;;
50429;SDS011;36359;41.556;-8.418;2023-12-22T00:15:59;22.80;;;14.47;;
50429;SDS011;36359;41.556;-8.418;2023-12-22T00:18:25;19.43;;;14.47;;
50429;SDS011;36359;41.556;-8.418;2023-12-22T00:20:52;16.63;;;12.37;;
50429;SDS011;36359;41.556;-8.418;2023-12-22T00:23:17;15.27;;;11.73;;
50429;SDS011;36359;41.556;-8.418;2023-12-22T00:25:43;17.40;;;11.67;;
50429;SDS011;36359;41.556;-8.418;2023-12-22T00:28:09;14.10;;;9.43;;
50429;SDS011;36359;41.556;-8.418;2023-12-22T00:30:35;11.27;;;8.57;;
50429;SDS011;36359;41.556;-8.418;2023-12-22T00:33:00;10.17;;;6.73;;
50429;SDS011;36359;41.556;-8.418;2023-12-22T00:35:26;8.87;;;6.63;;
50429;SDS011;36359;41.556;-8.418;2023-12-22T00:37:52;9.50;;;6.17;;
50429;SDS011;36359;41.556;-8.418;2023-12-22T00:40:18;8.47;;;5.20;;
50429;SDS011;36359;41.556;-8.418;2023-12-22T00:42:44;8.47;;;5.50;;
50429;SDS011;36359;41.556;-8.418;2023-12-22T00:45:10;7.63;;;5.30;;
50429;SDS011;36359;41.556;-8.418;2023-12-22T00:47:36;6.93;;;5.00;;
50429;SDS011;36359;41.556;-8.418;2023-12-22T00:50:02;7.63;;;5.10;;
50429;SDS011;36359;41.556;-8.418;2023-12-22T00:52:29;8.00;;;5.47;;
50429;SDS011;36359;41.556;-8.418;2023-12-22T00:54:56;8.40;;;5.00;;
50429;SDS011;36359;41.556;-8.418;2023-12-22T00:57:22;5.93;;;4.73;;
50429;SDS011;36359;41.556;-8.418;2023-12-22T00:59:48;7.17;;;4.80;;
50429;SDS011;36359;41.556;-8.418;2023-12-22T01:02:14;7.77;;;5.00;;
50429;SDS011;36359;41.556;-8.418;2023-12-22T01:04:41;6.17;;;4.53;;
50429;SDS011;36359;41.556;-8.418;2023-12-22T01:07:07;7.80;;;4.60;;
50429;SDS011;36359;41.556;-8.418;2023-12-22T01:09:33;7.50;;;5.57;;
50429;SDS011;36359;41.556;-8.418;2023-12-22T01:11:59;7.47;;;5.30;;
50429;SDS011;36359;41.556;-8.418;2023-12-22T01:14:28;8.30;;;5.67;;
50429;SDS011;36359;41.556;-8.418;2023-12-22T01:16:54;6.87;;;4.70;;
50429;SDS011;36359;41.556;-8.418;2023-12-22T01:19:20;8.03;;;5.10;;
50429;SDS011;36359;41.556;-8.418;2023-12-22T01:21:45;7.27;;;5.17;;
50429;SDS011;36359;41.556;-8.418;2023-12-22T01:24:11;7.60;;;5.07;;
50429;SDS011;36359;41.556;-8.418;2023-12-22T01:26:37;7.27;;;5.40;;
50429;SDS011;36359;41.556;-8.418;2023-12-22T01:29:03;7.30;;;5.33;;
50429;SDS011;36359;41.556;-8.418;2023-12-22T01:31:29;9.70;;;6.37;;
50429;SDS011;36359;41.556;-8.418;2023-12-22T01:33:55;7.70;;;3.90;;
50429;SDS011;36359;41.556;-8.418;2023-12-22T01:36:21;5.33;;;3.30;;
50429;SDS011;36359;41.556;-8.418;2023-12-22T01:38:47;5.20;;;3.63;;
50429;SDS011;36359;41.556;-8.418;2023-12-22T01:41:13;6.97;;;4.00;;
50429;SDS011;36359;41.556;-8.418;2023-12-22T01:43:39;6.00;;;4.17;;
50429;SDS011;36359;41.556;-8.418;2023-12-22T01:46:05;6.83;;;4.00;;
50429;SDS011;36359;41.556;-8.418;2023-12-22T01:48:32;6.50;;;3.80;;
50429;SDS011;36359;41.556;-8.418;2023-12-22T01:50:58;7.37;;;4.00;;
50429;SDS011;36359;41.556;-8.418;2023-12-22T01:53:26;6.50;;;3.90;;
50429;SDS011;36359;41.556;-8.418;2023-12-22T01:55:53;7.80;;;4.27;;
50429;SDS011;36359;41.556;-8.418;2023-12-22T01:58:20;5.47;;;3.90;;
50429;SDS011;36359;41.556;-8.418;2023-12-22T02:00:48;6.20;;;3.87;;
50429;SDS011;36359;41.556;-8.418;2023-12-22T02:03:14;6.87;;;3.70;;
50429;SDS011;36359;41.556;-8.418;2023-12-22T02:05:42;7.20;;;4.33;;
50429;SDS011;36359;41.556;-8.418;2023-12-22T02:08:09;5.47;;;3.67;;
50429;SDS011;36359;41.556;-8.418;2023-12-22T02:10:36;6.60;;;4.33;;
50429;SDS011;36359;41.556;-8.418;2023-12-22T02:13:03;7.87;;;4.00;;
50429;SDS011;36359;41.556;-8.418;2023-12-22T02:15:30;9.90;;;6.00;;
50429;SDS011;36359;41.556;-8.418;2023-12-22T02:18:02;8.70;;;6.30;;
50429;SDS011;36359;41.556;-8.418;2023-12-22T02:20:38;7.90;;;5.90;;
50429;SDS011;36359;41.556;-8.418;2023-12-22T02:23:04;10.73;;;6.13;;
50429;SDS011;36359;41.556;-8.418;2023-12-22T02:25:30;7.17;;;5.67;;
50429;SDS011;36359;41.556;-8.418;2023-12-22T02:30:34;9.10;;;5.93;;
50429;SDS011;36359;41.556;-8.418;2023-12-22T02:33:07;8.00;;;5.43;;
50429;SDS011;36359;41.556;-8.418;2023-12-22T02:35:35;8.53;;;5.37;;
50429;SDS011;36359;41.556;-8.418;2023-12-22T02:38:03;5.90;;;4.10;;
50429;SDS011;36359;41.556;-8.418;2023-12-22T02:40:30;5.97;;;3.33;;
50429;SDS011;36359;41.556;-8.418;2023-12-22T02:42:57;6.10;;;3.53;;
50429;SDS011;36359;41.556;-8.418;2023-12-22T02:45:23;5.60;;;3.33;;
50429;SDS011;36359;41.556;-8.418;2023-12-22T02:47:49;5.77;;;3.30;;
50429;SDS011;36359;41.556;-8.418;2023-12-22T02:50:15;5.77;;;3.10;;
50429;SDS011;36359;41.556;-8.418;2023-12-22T02:52:42;5.70;;;2.90;;
50429;SDS011;36359;41.556;-8.418;2023-12-22T02:55:08;4.43;;;3.07;;
50429;SDS011;36359;41.556;-8.418;2023-12-22T02:57:34;6.33;;;3.27;;
50429;SDS011;36359;41.556;-8.418;2023-12-22T03:00:00;3.87;;;3.00;;
50429;SDS011;36359;41.556;-8.418;2023-12-22T03:02:26;6.00;;;3.17;;
50429;SDS011;36359;41.556;-8.418;2023-12-22T03:04:51;5.40;;;3.17;;
50429;SDS011;36359;41.556;-8.418;2023-12-22T03:07:17;4.50;;;2.83;;
50429;SDS011;36359;41.556;-8.418;2023-12-22T03:09:43;4.70;;;3.10;;
50429;SDS011;36359;41.556;-8.418;2023-12-22T03:12:09;5.40;;;3.23;;
50429;SDS011;36359;41.556;-8.418;2023-12-22T03:14:35;4.43;;;3.17;;
50429;SDS011;36359;41.556;-8.418;2023-12-22T03:17:05;7.60;;;3.27;;
50429;SDS011;36359;41.556;-8.418;2023-12-22T03:19:31;5.77;;;3.20;;
50429;SDS011;36359;41.556;-8.418;2023-12-22T03:21:58;4.73;;;3.03;;
50429;SDS011;36359;41.556;-8.418;2023-12-22T03:24:24;4.90;;;3.03;;
50429;SDS011;36359;41.556;-8.418;2023-12-22T03:26:56;6.60;;;3.73;;
50429;SDS011;36359;41.556;-8.418;2023-12-22T03:29:22;5.67;;;2.97;;
50429;SDS011;36359;41.556;-8.418;2023-12-22T03:31:48;6.90;;;2.80;;
50429;SDS011;36359;41.556;-8.418;2023-12-22T03:34:14;7.43;;;3.77;;
50429;SDS011;36359;41.556;-8.418;2023-12-22T03:36:39;5.53;;;3.40;;
50429;SDS011;36359;41.556;-8.418;2023-12-22T03:39:05;4.57;;;2.93;;
50429;SDS011;36359;41.556;-8.418;2023-12-22T03:41:31;5.87;;;2.70;;
50429;SDS011;36359;41.556;-8.418;2023-12-22T03:43:57;7.23;;;3.20;;
50429;SDS011;36359;41.556;-8.418;2023-12-22T03:46:23;7.07;;;3.20;;
50429;SDS011;36359;41.556;-8.418;2023-12-22T03:48:52;5.03;;;3.07;;
50429;SDS011;36359;41.556;-8.418;2023-12-22T03:51:18;5.97;;;2.87;;
50429;SDS011;36359;41.556;-8.418;2023-12-22T03:53:44;6.07;;;3.03;;
50429;SDS011;36359;41.556;-8.418;2023-12-22T03:56:09;4.40;;;2.87;;
50429;SDS011;36359;41.556;-8.418;2023-12-22T03:58:36;6.50;;;2.80;;
50429;SDS011;36359;41.556;-8.418;2023-12-22T04:01:02;6.83;;;3.27;;
50429;SDS011;36359;41.556;-8.418;2023-12-22T04:03:28;5.43;;;2.60;;
50429;SDS011;36359;41.556;-8.418;2023-12-22T04:05:54;6.17;;;2.90;;
50429;SDS011;36359;41.556;-8.418;2023-12-22T04:08:20;7.37;;;2.97;;
50429;SDS011;36359;41.556;-8.418;2023-12-22T04:10:46;3.97;;;2.47;;
50429;SDS011;36359;41.556;-8.418;2023-12-22T04:13:12;6.43;;;2.70;;
50429;SDS011;36359;41.556;-8.418;2023-12-22T04:15:38;5.03;;;1.97;;
50429;SDS011;36359;41.556;-8.418;2023-12-22T04:18:04;4.77;;;2.40;;
50429;SDS011;36359;41.556;-8.418;2023-12-22T04:20:29;5.73;;;2.60;;
50429;SDS011;36359;41.556;-8.418;2023-12-22T04:22:55;5.47;;;2.30;;
50429;SDS011;36359;41.556;-8.418;2023-12-22T04:25:21;3.87;;;2.37;;
50429;SDS011;36359;41.556;-8.418;2023-12-22T04:27:48;5.47;;;2.20;;
50429;SDS011;36359;41.556;-8.418;2023-12-22T04:30:15;7.07;;;2.83;;
50429;SDS011;36359;41.556;-8.418;2023-12-22T04:32:41;6.50;;;2.90;;
50429;SDS011;36359;41.556;-8.418;2023-12-22T04:35:07;4.57;;;2.50;;
50429;SDS011;36359;41.556;-8.418;2023-12-22T04:37:33;6.13;;;3.00;;
50429;SDS011;36359;41.556;-8.418;2023-12-22T04:39:59;8.60;;;2.70;;
50429;SDS011;36359;41.556;-8.418;2023-12-22T04:42:24;6.40;;;2.40;;
50429;SDS011;36359;41.556;-8.418;2023-12-22T04:44:51;4.33;;;2.17;;
50429;SDS011;36359;41.556;-8.418;2023-12-22T04:47:17;6.43;;;2.63;;
50429;SDS011;36359;41.556;-8.418;2023-12-22T04:49:43;5.90;;;2.50;;
50429;SDS011;36359;41.556;-8.418;2023-12-22T04:52:09;8.13;;;2.67;;
50429;SDS011;36359;41.556;-8.418;2023-12-22T04:54:36;5.17;;;2.27;;
50429;SDS011;36359;41.556;-8.418;2023-12-22T04:57:01;6.80;;;2.23;;
50429;SDS011;36359;41.556;-8.418;2023-12-22T04:59:27;5.93;;;2.30;;
50429;SDS011;36359;41.556;-8.418;2023-12-22T05:01:53;6.37;;;2.73;;
50429;SDS011;36359;41.556;-8.418;2023-12-22T05:04:19;6.07;;;2.37;;
50429;SDS011;36359;41.556;-8.418;2023-12-22T05:06:44;6.20;;;2.57;;
50429;SDS011;36359;41.556;-8.418;2023-12-22T05:09:10;8.17;;;2.83;;
50429;SDS011;36359;41.556;-8.418;2023-12-22T05:11:37;5.77;;;2.23;;
50429;SDS011;36359;41.556;-8.418;2023-12-22T05:14:03;8.23;;;2.30;;
50429;SDS011;36359;41.556;-8.418;2023-12-22T05:16:29;5.87;;;2.40;;
50429;SDS011;36359;41.556;-8.418;2023-12-22T05:18:59;5.90;;;2.30;;
50429;SDS011;36359;41.556;-8.418;2023-12-22T05:21:25;4.57;;;2.23;;
50429;SDS011;36359;41.556;-8.418;2023-12-22T05:23:53;5.23;;;2.50;;
50429;SDS011;36359;41.556;-8.418;2023-12-22T05:26:22;7.33;;;2.90;;
50429;SDS011;36359;41.556;-8.418;2023-12-22T05:28:48;5.07;;;2.57;;
50429;SDS011;36359;41.556;-8.418;2023-12-22T05:31:17;8.43;;;2.67;;
50429;SDS011;36359;41.556;-8.418;2023-12-22T05:33:43;5.67;;;2.20;;
50429;SDS011;36359;41.556;-8.418;2023-12-22T05:36:09;7.00;;;2.83;;
50429;SDS011;36359;41.556;-8.418;2023-12-22T05:38:38;5.07;;;2.37;;
50429;SDS011;36359;41.556;-8.418;2023-12-22T05:41:04;3.57;;;2.57;;
50429;SDS011;36359;41.556;-8.418;2023-12-22T05:43:31;5.20;;;2.33;;
50429;SDS011;36359;41.556;-8.418;2023-12-22T05:45:58;4.93;;;2.30;;
50429;SDS011;36359;41.556;-8.418;2023-12-22T05:48:25;6.03;;;2.37;;
50429;SDS011;36359;41.556;-8.418;2023-12-22T05:50:51;6.23;;;2.40;;
50429;SDS011;36359;41.556;-8.418;2023-12-22T05:53:17;4.43;;;2.43;;
50429;SDS011;36359;41.556;-8.418;2023-12-22T05:55:42;6.93;;;2.60;;
50429;SDS011;36359;41.556;-8.418;2023-12-22T05:58:08;7.20;;;2.27;;
50429;SDS011;36359;41.556;-8.418;2023-12-22T06:00:34;4.57;;;1.83;;
50429;SDS011;36359;41.556;-8.418;2023-12-22T06:03:00;8.40;;;2.47;;
50429;SDS011;36359;41.556;-8.418;2023-12-22T06:05:27;7.10;;;2.23;;
50429;SDS011;36359;41.556;-8.418;2023-12-22T06:07:52;4.83;;;2.20;;
50429;SDS011;36359;41.556;-8.418;2023-12-22T06:10:18;5.50;;;1.90;;
50429;SDS011;36359;41.556;-8.418;2023-12-22T06:12:44;7.83;;;1.50;;
50429;SDS011;36359;41.556;-8.418;2023-12-22T06:15:10;7.37;;;2.23;;
50429;SDS011;36359;41.556;-8.418;2023-12-22T06:17:35;5.90;;;2.07;;
50429;SDS011;36359;41.556;-8.418;2023-12-22T06:20:01;6.03;;;1.80;;
50429;SDS011;36359;41.556;-8.418;2023-12-22T06:22:27;6.23;;;2.07;;
50429;SDS011;36359;41.556;-8.418;2023-12-22T06:24:53;6.00;;;2.10;;
50429;SDS011;36359;41.556;-8.418;2023-12-22T06:27:18;7.83;;;2.47;;
50429;SDS011;36359;41.556;-8.418;2023-12-22T06:29:44;10.10;;;2.60;;
50429;SDS011;36359;41.556;-8.418;2023-12-22T06:32:10;6.00;;;2.63;;
50429;SDS011;36359;41.556;-8.418;2023-12-22T06:34:36;10.30;;;2.97;;
50429;SDS011;36359;41.556;-8.418;2023-12-22T06:37:01;7.53;;;2.17;;
50429;SDS011;36359;41.556;-8.418;2023-12-22T06:39:27;7.57;;;2.97;;
50429;SDS011;36359;41.556;-8.418;2023-12-22T06:41:53;5.97;;;2.50;;
50429;SDS011;36359;41.556;-8.418;2023-12-22T06:44:18;10.43;;;3.53;;
50429;SDS011;36359;41.556;-8.418;2023-12-22T06:46:44;7.83;;;2.50;;
50429;SDS011;36359;41.556;-8.418;2023-12-22T06:49:10;12.10;;;2.53;;
50429;SDS011;36359;41.556;-8.418;2023-12-22T06:51:35;6.30;;;2.40;;
50429;SDS011;36359;41.556;-8.418;2023-12-22T06:54:02;7.27;;;2.50;;
50429;SDS011;36359;41.556;-8.418;2023-12-22T06:56:32;8.33;;;3.07;;
50429;SDS011;36359;41.556;-8.418;2023-12-22T06:58:59;9.00;;;2.50;;
50429;SDS011;36359;41.556;-8.418;2023-12-22T07:03:54;7.23;;;2.20;;
50429;SDS011;36359;41.556;-8.418;2023-12-22T07:06:20;8.33;;;2.30;;
50429;SDS011;36359;41.556;-8.418;2023-12-22T07:11:48;6.20;;;2.17;;
50429;SDS011;36359;41.556;-8.418;2023-12-22T07:14:16;8.05;;;2.67;;
50429;SDS011;36359;41.556;-8.418;2023-12-22T07:16:42;7.47;;;2.40;;
50429;SDS011;36359;41.556;-8.418;2023-12-22T07:19:08;8.40;;;2.20;;
50429;SDS011;36359;41.556;-8.418;2023-12-22T07:21:34;4.83;;;1.50;;
50429;SDS011;36359;41.556;-8.418;2023-12-22T07:24:00;9.67;;;1.93;;
50429;SDS011;36359;41.556;-8.418;2023-12-22T07:26:26;8.43;;;2.23;;
50429;SDS011;36359;41.556;-8.418;2023-12-22T07:28:52;9.93;;;2.27;;
50429;SDS011;36359;41.556;-8.418;2023-12-22T07:31:19;10.60;;;2.67;;
50429;SDS011;36359;41.556;-8.418;2023-12-22T07:33:44;7.77;;;2.93;;
50429;SDS011;36359;41.556;-8.418;2023-12-22T07:36:10;9.50;;;2.77;;
50429;SDS011;36359;41.556;-8.418;2023-12-22T07:38:36;7.50;;;2.50;;
50429;SDS011;36359;41.556;-8.418;2023-12-22T07:41:04;11.00;;;2.40;;
50429;SDS011;36359;41.556;-8.418;2023-12-22T07:43:30;12.10;;;2.20;;
50429;SDS011;36359;41.556;-8.418;2023-12-22T07:45:56;11.57;;;2.27;;
50429;SDS011;36359;41.556;-8.418;2023-12-22T07:48:21;9.33;;;1.90;;
50429;SDS011;36359;41.556;-8.418;2023-12-22T07:50:47;8.13;;;2.10;;
50429;SDS011;36359;41.556;-8.418;2023-12-22T07:53:13;11.07;;;2.30;;
50429;SDS011;36359;41.556;-8.418;2023-12-22T07:55:38;15.20;;;2.70;;
50429;SDS011;36359;41.556;-8.418;2023-12-22T07:58:05;8.87;;;2.17;;
50429;SDS011;36359;41.556;-8.418;2023-12-22T08:00:30;13.90;;;2.47;;
50429;SDS011;36359;41.556;-8.418;2023-12-22T08:02:57;15.90;;;2.63;;
50429;SDS011;36359;41.556;-8.418;2023-12-22T08:05:22;11.23;;;2.20;;
50429;SDS011;36359;41.556;-8.418;2023-12-22T08:07:48;11.70;;;2.57;;
50429;SDS011;36359;41.556;-8.418;2023-12-22T08:10:14;13.60;;;2.17;;
50429;SDS011;36359;41.556;-8.418;2023-12-22T08:12:41;13.53;;;2.67;;
50429;SDS011;36359;41.556;-8.418;2023-12-22T08:15:10;15.97;;;2.70;;
50429;SDS011;36359;41.556;-8.418;2023-12-22T08:17:36;16.87;;;3.10;;
50429;SDS011;36359;41.556;-8.418;2023-12-22T08:20:06;13.10;;;3.30;;
50429;SDS011;36359;41.556;-8.418;2023-12-22T08:22:33;11.32;;;3.15;;
50429;SDS011;36359;41.556;-8.418;2023-12-22T08:24:59;14.33;;;3.33;;
50429;SDS011;36359;41.556;-8.418;2023-12-22T08:27:25;14.57;;;3.37;;
50429;SDS011;36359;41.556;-8.418;2023-12-22T08:29:50;16.23;;;2.70;;
50429;SDS011;36359;41.556;-8.418;2023-12-22T08:32:16;13.67;;;3.23;;
50429;SDS011;36359;41.556;-8.418;2023-12-22T08:34:42;13.90;;;3.03;;
50429;SDS011;36359;41.556;-8.418;2023-12-22T08:37:07;11.27;;;3.00;;
50429;SDS011;36359;41.556;-8.418;2023-12-22T08:39:33;8.60;;;2.50;;
50429;SDS011;36359;41.556;-8.418;2023-12-22T08:41:59;13.13;;;2.80;;
50429;SDS011;36359;41.556;-8.418;2023-12-22T08:44:24;16.07;;;3.63;;
50429;SDS011;36359;41.556;-8.418;2023-12-22T08:46:50;15.53;;;3.60;;
50429;SDS011;36359;41.556;-8.418;2023-12-22T08:49:16;13.03;;;2.43;;
50429;SDS011;36359;41.556;-8.418;2023-12-22T08:51:41;13.77;;;2.60;;
50429;SDS011;36359;41.556;-8.418;2023-12-22T08:54:08;15.47;;;2.50;;
50429;SDS011;36359;41.556;-8.418;2023-12-22T08:56:35;14.37;;;2.97;;
50429;SDS011;36359;41.556;-8.418;2023-12-22T08:59:01;15.90;;;3.10;;
50429;SDS011;36359;41.556;-8.418;2023-12-22T09:01:27;10.03;;;2.50;;
50429;SDS011;36359;41.556;-8.418;2023-12-22T09:03:52;17.10;;;2.63;;
50429;SDS011;36359;41.556;-8.418;2023-12-22T09:06:19;16.23;;;2.90;;
50429;SDS011;36359;41.556;-8.418;2023-12-22T09:08:46;12.60;;;2.97;;
50429;SDS011;36359;41.556;-8.418;2023-12-22T09:11:12;10.93;;;2.63;;
50429;SDS011;36359;41.556;-8.418;2023-12-22T09:13:42;17.40;;;2.85;;
50429;SDS011;36359;41.556;-8.418;2023-12-22T09:16:09;17.67;;;2.80;;
50429;SDS011;36359;41.556;-8.418;2023-12-22T09:18:35;10.53;;;2.37;;
50429;SDS011;36359;41.556;-8.418;2023-12-22T09:21:01;15.97;;;2.70;;
50429;SDS011;36359;41.556;-8.418;2023-12-22T09:23:28;13.63;;;3.40;;
50429;SDS011;36359;41.556;-8.418;2023-12-22T09:25:54;12.40;;;3.17;;
50429;SDS011;36359;41.556;-8.418;2023-12-22T09:28:20;13.07;;;3.10;;
50429;SDS011;36359;41.556;-8.418;2023-12-22T09:30:46;12.80;;;3.43;;
50429;SDS011;36359;41.556;-8.418;2023-12-22T09:33:12;16.40;;;3.03;;
50429;SDS011;36359;41.556;-8.418;2023-12-22T09:35:38;16.07;;;3.20;;
50429;SDS011;36359;41.556;-8.418;2023-12-22T09:38:08;13.90;;;3.50;;
50429;SDS011;36359;41.556;-8.418;2023-12-22T09:40:35;11.57;;;3.40;;
50429;SDS011;36359;41.556;-8.418;2023-12-22T09:43:04;12.93;;;2.97;;
50429;SDS011;36359;41.556;-8.418;2023-12-22T09:45:32;15.13;;;3.50;;
50429;SDS011;36359;41.556;-8.418;2023-12-22T09:47:59;12.77;;;4.20;;
50429;SDS011;36359;41.556;-8.418;2023-12-22T09:50:27;12.10;;;3.87;;
50429;SDS011;36359;41.556;-8.418;2023-12-22T09:52:53;13.93;;;4.43;;
50429;SDS011;36359;41.556;-8.418;2023-12-22T09:55:21;14.40;;;3.97;;
50429;SDS011;36359;41.556;-8.418;2023-12-22T09:57:47;13.70;;;4.20;;
50429;SDS011;36359;41.556;-8.418;2023-12-22T10:00:15;16.67;;;4.73;;
50429;SDS011;36359;41.556;-8.418;2023-12-22T10:02:42;13.97;;;4.70;;
50429;SDS011;36359;41.556;-8.418;2023-12-22T10:05:08;8.10;;;2.97;;
50429;SDS011;36359;41.556;-8.418;2023-12-22T10:07:35;16.10;;;4.90;;
50429;SDS011;36359;41.556;-8.418;2023-12-22T10:10:01;15.43;;;5.30;;
50429;SDS011;36359;41.556;-8.418;2023-12-22T10:12:29;12.17;;;3.80;;
50429;SDS011;36359;41.556;-8.418;2023-12-22T10:14:57;18.93;;;5.03;;
50429;SDS011;36359;41.556;-8.418;2023-12-22T10:17:25;15.17;;;3.73;;
50429;SDS011;36359;41.556;-8.418;2023-12-22T10:19:51;15.20;;;4.00;;
50429;SDS011;36359;41.556;-8.418;2023-12-22T10:22:17;14.90;;;4.13;;
50429;SDS011;36359;41.556;-8.418;2023-12-22T10:27:14;14.10;;;4.10;;
50429;SDS011;36359;41.556;-8.418;2023-12-22T10:29:47;12.90;;;4.40;;
50429;SDS011;36359;41.556;-8.418;2023-12-22T10:32:14;16.00;;;4.93;;
50429;SDS011;36359;41.556;-8.418;2023-12-22T10:34:41;18.37;;;5.87;;
50429;SDS011;36359;41.556;-8.418;2023-12-22T10:37:06;15.63;;;5.00;;
50429;SDS011;36359;41.556;-8.418;2023-12-22T10:39:32;14.67;;;4.00;;
50429;SDS011;36359;41.556;-8.418;2023-12-22T10:41:58;13.90;;;4.00;;
50429;SDS011;36359;41.556;-8.418;2023-12-22T10:44:25;15.03;;;3.93;;
50429;SDS011;36359;41.556;-8.418;2023-12-22T10:46:51;14.23;;;3.93;;
50429;SDS011;36359;41.556;-8.418;2023-12-22T10:49:18;15.10;;;3.80;;
50429;SDS011;36359;41.556;-8.418;2023-12-22T10:51:44;15.77;;;3.67;;
50429;SDS011;36359;41.556;-8.418;2023-12-22T10:54:10;16.67;;;4.73;;
50429;SDS011;36359;41.556;-8.418;2023-12-22T10:56:36;20.77;;;4.73;;
50429;SDS011;36359;41.556;-8.418;2023-12-22T10:59:02;20.47;;;5.90;;
50429;SDS011;36359;41.556;-8.418;2023-12-22T11:01:29;20.80;;;4.93;;
50429;SDS011;36359;41.556;-8.418;2023-12-22T11:03:57;12.00;;;3.73;;
50429;SDS011;36359;41.556;-8.418;2023-12-22T11:06:26;16.00;;;5.17;;
50429;SDS011;36359;41.556;-8.418;2023-12-22T11:08:55;18.90;;;5.53;;
50429;SDS011;36359;41.556;-8.418;2023-12-22T11:11:44;16.13;;;5.00;;
50429;SDS011;36359;41.556;-8.418;2023-12-22T11:14:10;15.50;;;4.63;;
50429;SDS011;36359;41.556;-8.418;2023-12-22T11:16:37;11.47;;;4.20;;
50429;SDS011;36359;41.556;-8.418;2023-12-22T11:19:06;12.97;;;4.20;;
50429;SDS011;36359;41.556;-8.418;2023-12-22T11:21:33;13.77;;;4.30;;
50429;SDS011;36359;41.556;-8.418;2023-12-22T11:24:01;13.20;;;4.27;;
50429;SDS011;36359;41.556;-8.418;2023-12-22T11:26:29;12.83;;;4.03;;
50429;SDS011;36359;41.556;-8.418;2023-12-22T11:28:56;17.20;;;4.63;;
50429;SDS011;36359;41.556;-8.418;2023-12-22T11:31:24;15.43;;;4.40;;
50429;SDS011;36359;41.556;-8.418;2023-12-22T11:33:52;12.63;;;4.43;;
50429;SDS011;36359;41.556;-8.418;2023-12-22T11:36:21;16.38;;;4.35;;
50429;SDS011;36359;41.556;-8.418;2023-12-22T11:38:48;14.25;;;3.95;;
50429;SDS011;36359;41.556;-8.418;2023-12-22T11:41:19;7.80;;;2.80;;
50429;SDS011;36359;41.556;-8.418;2023-12-22T11:43:49;10.13;;;4.25;;
50429;SDS011;36359;41.556;-8.418;2023-12-22T11:46:17;18.50;;;5.45;;
50429;SDS011;36359;41.556;-8.418;2023-12-22T11:48:47;19.40;;;8.07;;
50429;SDS011;36359;41.556;-8.418;2023-12-22T11:51:14;14.48;;;5.03;;
50429;SDS011;36359;41.556;-8.418;2023-12-22T11:53:41;15.63;;;4.78;;
50429;SDS011;36359;41.556;-8.418;2023-12-22T11:56:07;11.77;;;4.38;;
50429;SDS011;36359;41.556;-8.418;2023-12-22T12:01:18;12.63;;;4.60;;
50429;SDS011;36359;41.556;-8.418;2023-12-22T12:03:52;13.85;;;4.72;;
50429;SDS011;36359;41.556;-8.418;2023-12-22T12:08:56;13.20;;;4.38;;
50429;SDS011;36359;41.556;-8.418;2023-12-22T12:11:23;16.50;;;4.63;;
50429;SDS011;36359;41.556;-8.418;2023-12-22T12:13:49;19.65;;;5.85;;
50429;SDS011;36359;41.556;-8.418;2023-12-22T12:16:19;15.88;;;5.22;;
50429;SDS011;36359;41.556;-8.418;2023-12-22T12:18:47;19.83;;;5.07;;
50429;SDS011;36359;41.556;-8.418;2023-12-22T12:21:13;17.67;;;4.75;;
50429;SDS011;36359;41.556;-8.418;2023-12-22T12:23:41;14.60;;;5.05;;
50429;SDS011;36359;41.556;-8.418;2023-12-22T12:26:08;20.42;;;5.80;;
50429;SDS011;36359;41.556;-8.418;2023-12-22T12:28:35;14.20;;;5.10;;
50429;SDS011;36359;41.556;-8.418;2023-12-22T12:31:05;16.73;;;4.80;;
50429;SDS011;36359;41.556;-8.418;2023-12-22T12:33:34;12.55;;;4.65;;
50429;SDS011;36359;41.556;-8.418;2023-12-22T12:36:01;15.60;;;5.25;;
50429;SDS011;36359;41.556;-8.418;2023-12-22T12:41:03;16.23;;;5.30;;
50429;SDS011;36359;41.556;-8.418;2023-12-22T12:43:31;16.00;;;5.93;;
50429;SDS011;36359;41.556;-8.418;2023-12-22T12:46:04;16.40;;;5.63;;
50429;SDS011;36359;41.556;-8.418;2023-12-22T12:48:30;13.30;;;4.82;;
50429;SDS011;36359;41.556;-8.418;2023-12-22T12:51:06;12.05;;;4.88;;
50429;SDS011;36359;41.556;-8.418;2023-12-22T12:53:32;12.80;;;4.53;;
50429;SDS011;36359;41.556;-8.418;2023-12-22T12:55:58;15.27;;;4.93;;
50429;SDS011;36359;41.556;-8.418;2023-12-22T12:58:29;14.60;;;4.75;;
50429;SDS011;36359;41.556;-8.418;2023-12-22T13:01:04;13.32;;;4.32;;
50429;SDS011;36359;41.556;-8.418;2023-12-22T13:03:32;12.73;;;4.53;;
50429;SDS011;36359;41.556;-8.418;2023-12-22T13:06:07;14.35;;;5.20;;
50429;SDS011;36359;41.556;-8.418;2023-12-22T13:08:33;12.32;;;4.75;;
50429;SDS011;36359;41.556;-8.418;2023-12-22T13:10:59;14.13;;;5.53;;
50429;SDS011;36359;41.556;-8.418;2023-12-22T13:13:29;17.77;;;4.75;;
50429;SDS011;36359;41.556;-8.418;2023-12-22T13:15:55;11.13;;;4.25;;
50429;SDS011;36359;41.556;-8.418;2023-12-22T13:18:21;15.30;;;5.40;;
50429;SDS011;36359;41.556;-8.418;2023-12-22T13:20:47;18.58;;;5.20;;
50429;SDS011;36359;41.556;-8.418;2023-12-22T13:23:16;21.23;;;6.13;;
50429;SDS011;36359;41.556;-8.418;2023-12-22T13:25:43;15.48;;;5.57;;
50429;SDS011;36359;41.556;-8.418;2023-12-22T13:30:40;12.57;;;4.60;;
50429;SDS011;36359;41.556;-8.418;2023-12-22T13:33:07;9.95;;;4.03;;
50429;SDS011;36359;41.556;-8.418;2023-12-22T13:35:33;15.52;;;4.85;;
50429;SDS011;36359;41.556;-8.418;2023-12-22T13:38:06;15.15;;;5.05;;
50429;SDS011;36359;41.556;-8.418;2023-12-22T13:40:32;14.30;;;5.43;;
50429;SDS011;36359;41.556;-8.418;2023-12-22T13:42:59;13.45;;;4.55;;
50429;SDS011;36359;41.556;-8.418;2023-12-22T13:45:28;11.75;;;4.55;;
50429;SDS011;36359;41.556;-8.418;2023-12-22T13:47:56;16.35;;;5.70;;
50429;SDS011;36359;41.556;-8.418;2023-12-22T13:50:22;13.90;;;5.05;;
50429;SDS011;36359;41.556;-8.418;2023-12-22T13:52:48;9.48;;;3.88;;
50429;SDS011;36359;41.556;-8.418;2023-12-22T13:55:17;11.90;;;4.15;;
50429;SDS011;36359;41.556;-8.418;2023-12-22T13:57:44;12.77;;;4.43;;
50429;SDS011;36359;41.556;-8.418;2023-12-22T14:02:45;16.52;;;6.38;;
50429;SDS011;36359;41.556;-8.418;2023-12-22T14:05:11;18.48;;;8.57;;
50429;SDS011;36359;41.556;-8.418;2023-12-22T14:07:37;14.48;;;5.57;;
50429;SDS011;36359;41.556;-8.418;2023-12-22T14:10:06;18.17;;;7.03;;
50429;SDS011;36359;41.556;-8.418;2023-12-22T14:12:33;16.17;;;5.70;;
50429;SDS011;36359;41.556;-8.418;2023-12-22T14:14:58;17.90;;;6.38;;
50429;SDS011;36359;41.556;-8.418;2023-12-22T14:17:25;32.90;;;18.27;;
50429;SDS011;36359;41.556;-8.418;2023-12-22T14:19:50;28.95;;;13.60;;
50429;SDS011;36359;41.556;-8.418;2023-12-22T14:22:16;18.30;;;8.68;;
50429;SDS011;36359;41.556;-8.418;2023-12-22T14:24:42;20.90;;;8.57;;
50429;SDS011;36359;41.556;-8.418;2023-12-22T14:27:08;17.40;;;6.85;;
50429;SDS011;36359;41.556;-8.418;2023-12-22T14:29:37;10.18;;;4.72;;
50429;SDS011;36359;41.556;-8.418;2023-12-22T14:32:05;9.35;;;5.00;;
50429;SDS011;36359;41.556;-8.418;2023-12-22T14:34:33;16.55;;;7.32;;
50429;SDS011;36359;41.556;-8.418;2023-12-22T14:36:59;15.55;;;6.47;;
50429;SDS011;36359;41.556;-8.418;2023-12-22T14:39:26;20.70;;;7.20;;
50429;SDS011;36359;41.556;-8.418;2023-12-22T14:41:52;19.55;;;7.75;;
50429;SDS011;36359;41.556;-8.418;2023-12-22T14:44:18;15.68;;;5.15;;
50429;SDS011;36359;41.556;-8.418;2023-12-22T14:46:44;19.23;;;7.57;;
50429;SDS011;36359;41.556;-8.418;2023-12-22T14:49:10;19.38;;;7.72;;